Time;durP1;ratioP1;P1;durP2;ratioP2;P2;SDS_P1;SDS_P2;PMS_P1;PMS_P2;Temp;Humidity;BMP_temperature;BMP_pressure;BME280_temperature;BME280_humidity;BME280_pressure;Samples;Min_cycle;Max_cycle;Signal;HPM_P1;HPM_P2
2023/07/06 00:00:40;;;;;;;9.43;5.28;;;11.90;99.90;;;;;;5061772;28;20044;-78
2023/07/06 00:03:06;;;;;;;10.20;5.35;;;11.90;99.90;;;;;;5063922;28;20429;-78
2023/07/06 00:05:32;;;;;;;7.82;5.25;;;11.90;99.90;;;;;;5062239;28;20040;-78
2023/07/06 00:07:58;;;;;;;10.02;5.65;;;11.90;99.90;;;;;;5066976;28;20032;-78
2023/07/06 00:10:24;;;;;;;7.60;5.15;;;11.90;99.90;;;;;;5064636;28;20040;-78
2023/07/06 00:12:50;;;;;;;11.23;6.25;;;11.90;99.90;;;;;;5062551;28;20473;-78
2023/07/06 00:15:16;;;;;;;10.05;6.05;;;11.90;99.90;;;;;;5062415;28;20125;-78
2023/07/06 00:17:41;;;;;;;8.45;5.40;;;11.90;99.90;;;;;;5065213;28;20399;-78
2023/07/06 00:20:10;;;;;;;6.53;5.55;;;11.90;99.90;;;;;;5067184;28;20041;-78
2023/07/06 00:22:36;;;;;;;8.82;5.80;;;11.80;99.90;;;;;;5063806;28;20048;-78
2023/07/06 00:25:03;;;;;;;6.85;5.70;;;11.80;99.90;;;;;;5066830;28;20055;-78
2023/07/06 00:27:28;;;;;;;9.45;6.32;;;11.80;99.90;;;;;;5067993;28;20102;-78
2023/07/06 00:30:07;;;;;;;7.03;6.07;;;11.90;99.90;;;;;;5065898;28;20496;-78
2023/07/06 00:32:33;;;;;;;8.02;6.43;;;11.80;99.90;;;;;;5033204;28;20040;-78
2023/07/06 00:35:00;;;;;;;10.15;6.20;;;11.90;99.90;;;;;;5064220;28;20445;-78
2023/07/06 00:37:26;;;;;;;9.73;6.13;;;11.90;99.90;;;;;;5064990;28;20040;-78
2023/07/06 00:39:52;;;;;;;8.68;6.35;;;11.90;99.90;;;;;;5043915;28;20047;-78
2023/07/06 00:42:20;;;;;;;8.18;5.55;;;11.90;99.90;;;;;;5050134;28;20163;-78
2023/07/06 00:44:48;;;;;;;6.72;5.75;;;11.90;99.90;;;;;;5065489;28;20059;-78
2023/07/06 00:47:14;;;;;;;7.72;6.10;;;11.80;99.90;;;;;;5065647;28;20052;-78
2023/07/06 00:49:41;;;;;;;9.50;6.25;;;11.80;99.90;;;;;;5062135;28;20053;-78
2023/07/06 00:52:08;;;;;;;10.18;6.30;;;11.80;99.90;;;;;;5067525;28;20098;-78
2023/07/06 00:54:37;;;;;;;9.45;5.88;;;11.80;99.90;;;;;;5060204;28;20127;-78
2023/07/06 00:57:04;;;;;;;10.70;6.38;;;11.90;99.90;;;;;;5076153;28;20049;-78
2023/07/06 00:59:31;;;;;;;9.43;6.38;;;11.90;99.90;;;;;;5060748;28;20041;-78
2023/07/06 01:01:59;;;;;;;5.85;5.25;;;12.10;99.90;;;;;;5075913;28;20047;-78
2023/07/06 01:04:30;;;;;;;9.18;5.50;;;11.90;99.90;;;;;;5055338;28;20040;-77
2023/07/06 01:06:56;;;;;;;7.43;5.95;;;11.80;99.90;;;;;;5058223;28;20487;-78
2023/07/06 01:09:25;;;;;;;5.93;5.20;;;11.80;99.90;;;;;;5058103;28;20041;-78
2023/07/06 01:11:55;;;;;;;7.97;5.88;;;11.80;99.90;;;;;;5047763;28;20048;-78
2023/07/06 01:14:21;;;;;;;8.93;6.10;;;11.80;99.90;;;;;;5042739;28;20056;-78
2023/07/06 01:16:56;;;;;;;6.88;5.80;;;11.70;99.90;;;;;;5059429;28;20487;-77
2023/07/06 01:19:41;;;;;;;9.00;5.70;;;11.70;99.90;;;;;;5063712;28;20591;-78
2023/07/06 01:22:28;;;;;;;7.53;6.25;;;11.70;99.90;;;;;;5060273;28;20592;-76
2023/07/06 01:25:19;;;;;;;9.02;5.55;;;11.70;99.90;;;;;;5066032;28;20467;-76
2023/07/06 01:27:54;;;;;;;6.65;5.57;;;11.70;99.90;;;;;;5067207;28;20125;-76
2023/07/06 01:31:02;;;;;;;8.52;5.65;;;11.70;99.90;;;;;;5063959;28;20047;-76
2023/07/06 01:34:08;;;;;;;9.60;5.72;;;11.60;99.90;;;;;;5044357;28;20040;-76
2023/07/06 01:36:43;;;;;;;7.57;5.45;;;11.60;99.90;;;;;;5061044;28;20056;-76
2023/07/06 01:39:13;;;;;;;9.50;5.63;;;11.60;99.90;;;;;;5062472;28;20044;-76
2023/07/06 01:41:40;;;;;;;7.07;5.43;;;11.60;99.90;;;;;;5046732;28;20078;-76
2023/07/06 01:44:09;;;;;;;7.63;5.30;;;11.60;99.90;;;;;;5065658;28;20048;-76
2023/07/06 01:46:34;;;;;;;9.60;6.30;;;11.60;99.90;;;;;;5065388;28;20044;-76
2023/07/06 01:49:00;;;;;;;8.25;5.50;;;11.60;99.90;;;;;;5063761;28;20055;-76
2023/07/06 01:51:36;;;;;;;10.90;5.35;;;11.50;99.90;;;;;;5061891;28;20075;-76
2023/07/06 01:54:17;;;;;;;7.05;5.18;;;11.50;99.90;;;;;;5066403;28;20041;-76
2023/07/06 01:56:57;;;;;;;8.93;5.78;;;11.50;99.90;;;;;;5066595;28;20058;-76
2023/07/06 01:59:25;;;;;;;8.10;5.82;;;11.50;99.90;;;;;;5069060;28;20035;-76
2023/07/06 02:02:00;;;;;;;7.95;5.18;;;11.40;99.90;;;;;;5067898;28;20085;-76
2023/07/06 02:04:31;;;;;;;6.32;5.72;;;11.40;99.90;;;;;;5066902;28;20177;-76
2023/07/06 02:07:01;;;;;;;9.40;5.80;;;11.30;99.90;;;;;;5053762;28;20067;-76
2023/07/06 02:09:27;;;;;;;6.13;5.32;;;11.30;99.90;;;;;;5068067;28;20119;-76
2023/07/06 02:11:53;;;;;;;7.97;5.43;;;11.30;99.90;;;;;;5069593;28;20552;-76
2023/07/06 02:14:19;;;;;;;7.65;5.95;;;11.30;99.90;;;;;;5069479;28;20047;-76
2023/07/06 02:16:45;;;;;;;7.78;5.22;;;11.30;99.90;;;;;;5069211;28;20055;-76
2023/07/06 02:19:11;;;;;;;5.68;5.05;;;11.30;99.90;;;;;;5070457;28;20045;-76
2023/07/06 02:21:38;;;;;;;6.53;5.75;;;11.30;99.90;;;;;;5066659;28;20451;-76
2023/07/06 02:24:04;;;;;;;9.20;5.90;;;11.30;99.90;;;;;;5069674;28;21058;-76
2023/07/06 02:26:29;;;;;;;7.88;5.63;;;11.40;99.90;;;;;;5067299;28;20055;-76
2023/07/06 02:28:55;;;;;;;7.20;5.70;;;11.40;99.90;;;;;;5070129;28;20063;-76
2023/07/06 02:31:20;;;;;;;8.05;6.00;;;11.40;99.90;;;;;;5069388;28;20049;-76
2023/07/06 02:33:46;;;;;;;9.18;6.35;;;11.40;99.90;;;;;;5067075;28;20071;-76
2023/07/06 02:36:12;;;;;;;8.02;6.15;;;11.40;99.90;;;;;;5068420;28;20039;-76
2023/07/06 02:38:37;;;;;;;7.53;5.93;;;11.40;99.90;;;;;;5064489;28;20044;-76
2023/07/06 02:41:04;;;;;;;8.48;5.80;;;11.60;99.90;;;;;;5067213;28;20040;-76
2023/07/06 02:43:30;;;;;;;7.47;5.75;;;11.50;99.90;;;;;;5048834;28;20037;-76
2023/07/06 02:45:57;;;;;;;8.32;6.15;;;11.50;99.90;;;;;;5059488;28;20048;-76
2023/07/06 02:48:24;;;;;;;7.45;5.75;;;11.50;99.90;;;;;;5066933;28;20044;-76
2023/07/06 02:50:50;;;;;;;8.23;6.60;;;11.50;99.90;;;;;;5066278;28;20428;-76
2023/07/06 02:53:17;;;;;;;11.85;6.38;;;11.50;99.90;;;;;;5068573;28;20204;-76
2023/07/06 02:55:47;;;;;;;6.80;5.97;;;11.50;99.90;;;;;;5053187;28;20052;-76
2023/07/06 02:58:13;;;;;;;10.40;6.50;;;11.50;99.90;;;;;;5067164;28;20043;-76
2023/07/06 03:00:39;;;;;;;8.05;6.40;;;11.50;99.90;;;;;;5055598;28;20057;-76
2023/07/06 03:03:09;;;;;;;7.82;5.88;;;11.50;99.90;;;;;;5049136;28;20551;-76
2023/07/06 03:05:35;;;;;;;6.55;5.95;;;11.50;99.90;;;;;;5060322;28;20496;-76
2023/07/06 03:08:03;;;;;;;8.10;6.47;;;11.50;99.90;;;;;;5042468;28;20052;-76
2023/07/06 03:10:30;;;;;;;7.43;6.60;;;11.50;99.90;;;;;;5060950;28;20392;-76
2023/07/06 03:12:57;;;;;;;11.07;7.25;;;11.50;99.90;;;;;;5060438;28;20166;-76
2023/07/06 03:15:23;;;;;;;7.97;6.50;;;11.60;99.90;;;;;;5060122;28;20056;-76
2023/07/06 03:17:50;;;;;;;10.02;7.03;;;11.50;99.90;;;;;;5042909;28;20035;-76
2023/07/06 03:20:21;;;;;;;9.05;7.00;;;11.50;99.90;;;;;;5049542;28;20369;-76
2023/07/06 03:22:48;;;;;;;9.63;7.00;;;11.60;99.90;;;;;;5061553;28;20072;-76
2023/07/06 03:25:22;;;;;;;10.10;6.70;;;11.50;99.90;;;;;;5059885;28;20032;-76
2023/07/06 03:27:47;;;;;;;8.77;5.97;;;11.50;99.90;;;;;;5058565;28;20045;-76
2023/07/06 03:30:15;;;;;;;9.30;6.88;;;11.50;99.90;;;;;;5060357;28;20052;-76
2023/07/06 03:32:41;;;;;;;10.88;7.75;;;11.70;99.90;;;;;;5059757;28;20052;-76
2023/07/06 03:35:09;;;;;;;8.88;7.40;;;11.50;99.90;;;;;;5060689;28;20045;-76
2023/07/06 03:37:39;;;;;;;8.10;6.97;;;11.50;99.90;;;;;;5044381;28;20064;-76
2023/07/06 03:40:06;;;;;;;11.48;7.40;;;11.50;99.90;;;;;;5066385;28;20534;-76
2023/07/06 03:42:32;;;;;;;8.55;6.95;;;11.50;99.90;;;;;;5067615;28;20071;-76
2023/07/06 03:44:58;;;;;;;8.50;7.25;;;11.50;99.90;;;;;;5065810;28;20463;-76
2023/07/06 03:47:26;;;;;;;9.95;7.55;;;11.50;99.90;;;;;;5068648;28;20070;-76
2023/07/06 03:49:53;;;;;;;8.23;6.63;;;11.50;99.90;;;;;;5048751;28;20098;-76
2023/07/06 03:52:18;;;;;;;11.25;7.20;;;11.50;99.90;;;;;;5050948;28;20067;-78
2023/07/06 03:54:47;;;;;;;10.30;7.65;;;11.60;99.90;;;;;;5048982;28;20145;-78
2023/07/06 03:57:16;;;;;;;10.52;7.53;;;11.60;99.90;;;;;;5064079;28;20123;-78
2023/07/06 03:59:42;;;;;;;13.35;8.25;;;11.60;99.90;;;;;;5067480;28;20049;-77
2023/07/06 04:02:09;;;;;;;10.60;8.30;;;11.70;99.90;;;;;;5065436;28;20062;-77
2023/07/06 04:04:35;;;;;;;9.57;7.25;;;11.70;99.90;;;;;;5064976;28;20552;-78
2023/07/06 04:07:01;;;;;;;11.93;8.05;;;11.80;99.90;;;;;;5063859;28;20432;-77
2023/07/06 04:09:28;;;;;;;10.63;7.32;;;11.80;99.90;;;;;;5062615;28;20117;-77
2023/07/06 04:11:55;;;;;;;13.15;7.53;;;11.90;99.90;;;;;;5067082;28;20117;-77
2023/07/06 04:14:26;;;;;;;11.63;7.43;;;11.90;99.90;;;;;;5066128;28;20082;-77
2023/07/06 04:16:54;;;;;;;12.03;7.17;;;11.90;99.90;;;;;;5066063;28;20056;-78
2023/07/06 04:19:20;;;;;;;11.15;7.85;;;12.00;99.90;;;;;;5065343;28;20593;-78
2023/07/06 04:21:46;;;;;;;9.07;7.15;;;12.30;99.90;;;;;;5049508;28;20117;-78
2023/07/06 04:24:11;;;;;;;12.93;7.43;;;12.20;99.90;;;;;;5065829;28;20044;-78
2023/07/06 04:26:37;;;;;;;9.55;7.53;;;12.10;99.90;;;;;;5065253;28;20102;-78
2023/07/06 04:29:08;;;;;;;11.18;7.57;;;12.20;99.90;;;;;;5050008;28;20044;-78
2023/07/06 04:31:36;;;;;;;10.15;7.28;;;12.20;99.90;;;;;;5049082;28;20080;-77
2023/07/06 04:34:03;;;;;;;14.05;7.28;;;12.30;99.90;;;;;;5057322;28;20052;-77
2023/07/06 04:36:31;;;;;;;12.48;7.68;;;12.30;99.90;;;;;;5064057;28;20052;-77
2023/07/06 04:38:58;;;;;;;10.27;7.40;;;12.40;99.90;;;;;;5042893;28;20048;-78
2023/07/06 04:41:25;;;;;;;10.90;7.38;;;12.50;99.90;;;;;;5067524;28;20154;-77
2023/07/06 04:43:52;;;;;;;14.52;8.23;;;12.50;99.90;;;;;;5065689;28;20044;-78
2023/07/06 04:46:20;;;;;;;9.70;7.20;;;12.60;99.90;;;;;;5061467;28;20064;-78
2023/07/06 04:48:46;;;;;;;12.88;7.60;;;12.70;99.90;;;;;;5066290;28;20127;-78
2023/07/06 04:51:12;;;;;;;12.10;7.60;;;12.80;99.90;;;;;;5046050;28;20076;-77
2023/07/06 04:53:38;;;;;;;11.90;7.50;;;12.90;99.90;;;;;;5067314;28;20110;-77
2023/07/06 04:56:04;;;;;;;9.25;6.30;;;12.90;99.90;;;;;;5058714;28;20064;-77
2023/07/06 04:58:30;;;;;;;13.50;7.45;;;13.00;99.90;;;;;;5040692;28;20091;-78
2023/07/06 05:00:56;;;;;;;11.23;7.57;;;13.00;99.90;;;;;;5065420;28;20453;-77
2023/07/06 05:03:23;;;;;;;10.85;7.55;;;13.10;99.90;;;;;;5066650;28;20052;-77
2023/07/06 05:05:48;;;;;;;9.82;7.25;;;13.20;99.90;;;;;;5048708;28;20131;-77
2023/07/06 05:08:16;;;;;;;8.95;6.53;;;13.30;99.90;;;;;;5063475;28;20056;-77
2023/07/06 05:10:50;;;;;;;9.82;7.40;;;13.40;99.90;;;;;;5066087;28;20051;-77
2023/07/06 05:13:16;;;;;;;9.70;7.22;;;13.30;99.90;;;;;;5065630;28;20036;-78
2023/07/06 05:15:42;;;;;;;11.50;7.95;;;13.40;99.90;;;;;;5039286;28;20044;-77
2023/07/06 05:18:08;;;;;;;12.23;7.45;;;13.40;99.90;;;;;;5046274;28;20049;-77
2023/07/06 05:20:34;;;;;;;10.75;6.88;;;13.60;99.90;;;;;;5058871;28;20102;-77
2023/07/06 05:22:59;;;;;;;8.05;7.05;;;13.60;99.90;;;;;;5066420;28;20449;-77
2023/07/06 05:25:26;;;;;;;13.73;7.65;;;13.60;99.90;;;;;;5049915;28;20109;-77
2023/07/06 05:27:52;;;;;;;13.43;7.53;;;13.70;99.90;;;;;;5066429;28;20049;-77
2023/07/06 05:30:18;;;;;;;9.68;7.35;;;13.80;99.90;;;;;;5064880;28;20090;-78
2023/07/06 05:32:44;;;;;;;11.85;7.78;;;13.90;99.90;;;;;;5064580;28;20041;-77
2023/07/06 05:35:10;;;;;;;9.43;7.72;;;14.20;99.90;;;;;;5046676;28;20412;-77
2023/07/06 05:37:36;;;;;;;10.50;7.60;;;15.20;99.90;;;;;;5061562;28;20036;-78
2023/07/06 05:40:04;;;;;;;14.10;7.88;;;16.30;99.90;;;;;;5065795;28;20348;-77
2023/07/06 05:42:31;;;;;;;11.82;7.50;;;17.10;99.90;;;;;;5066062;28;20079;-77
2023/07/06 05:44:56;;;;;;;14.20;8.07;;;18.00;99.90;;;;;;5066028;28;20036;-77
2023/07/06 05:47:22;;;;;;;11.57;7.28;;;18.70;99.90;;;;;;5066183;28;20069;-77
2023/07/06 05:49:48;;;;;;;10.38;7.07;;;19.40;99.90;;;;;;5066287;28;20397;-77
2023/07/06 05:52:13;;;;;;;10.93;7.03;;;20.00;99.90;;;;;;5067749;28;20087;-77
2023/07/06 05:54:39;;;;;;;10.75;6.65;;;20.30;99.90;;;;;;5062008;28;20137;-81
2023/07/06 05:57:06;;;;;;;11.30;6.63;;;20.70;99.90;;;;;;5047326;28;20037;-79
2023/07/06 05:59:32;;;;;;;11.05;6.72;;;21.00;99.90;;;;;;5062378;28;20045;-80
2023/07/06 06:01:59;;;;;;;9.57;6.93;;;21.10;99.90;;;;;;5044674;28;20078;-81
2023/07/06 06:04:28;;;;;;;10.52;6.47;;;21.40;99.90;;;;;;5076411;28;20053;-80
2023/07/06 06:06:56;;;;;;;7.00;5.60;;;21.60;99.90;;;;;;5053121;28;20045;-80
2023/07/06 06:09:24;;;;;;;10.15;6.07;;;21.90;99.90;;;;;;5064156;28;20064;-80
2023/07/06 06:11:50;;;;;;;8.57;5.80;;;22.00;99.90;;;;;;5061678;28;20048;-78
2023/07/06 06:14:17;;;;;;;6.80;5.22;;;22.20;99.90;;;;;;5046843;28;20053;-80
2023/07/06 06:16:42;;;;;;;10.27;5.78;;;22.40;99.90;;;;;;5049957;28;20508;-79
2023/07/06 06:19:09;;;;;;;10.38;5.50;;;22.30;99.90;;;;;;5063064;28;20044;-79
2023/07/06 06:21:35;;;;;;;10.00;5.15;;;21.60;99.90;;;;;;5067348;28;20891;-80
2023/07/06 06:24:03;;;;;;;9.40;5.25;;;21.40;99.90;;;;;;5064548;28;20045;-79
2023/07/06 06:26:29;;;;;;;8.85;5.35;;;21.40;99.90;;;;;;5064532;28;20103;-78
2023/07/06 06:28:57;;;;;;;8.60;4.97;;;21.60;99.90;;;;;;5064664;28;20060;-80
2023/07/06 06:31:23;;;;;;;9.23;5.30;;;21.70;99.90;;;;;;5065127;28;20044;-79
2023/07/06 06:33:49;;;;;;;7.75;5.78;;;21.70;99.90;;;;;;5064639;28;20076;-80
2023/07/06 06:36:17;;;;;;;9.25;5.40;;;21.70;99.90;;;;;;5064388;28;20083;-80
2023/07/06 06:38:46;;;;;;;11.43;5.38;;;21.90;99.90;;;;;;5055488;28;20040;-80
2023/07/06 06:41:12;;;;;;;7.53;4.82;;;22.30;99.90;;;;;;5065481;28;20041;-79
2023/07/06 06:43:39;;;;;;;8.43;5.10;;;22.10;99.90;;;;;;5069500;28;20098;-81
2023/07/06 06:46:08;;;;;;;9.02;5.95;;;21.40;99.90;;;;;;5052853;28;20084;-80
2023/07/06 06:48:34;;;;;;;8.85;5.40;;;20.70;99.90;;;;;;5068184;28;20032;-81
2023/07/06 06:51:01;;;;;;;7.43;5.22;;;20.20;99.90;;;;;;5047841;28;20041;-81
2023/07/06 06:53:27;;;;;;;7.40;4.80;;;19.80;99.90;;;;;;5033549;28;20080;-80
2023/07/06 06:55:57;;;;;;;7.55;5.22;;;19.50;99.90;;;;;;5051420;28;20060;-80
2023/07/06 06:58:24;;;;;;;11.02;5.70;;;19.40;99.90;;;;;;5087285;28;20071;-80
2023/07/06 07:01:00;;;;;;;11.52;6.00;;;19.40;99.90;;;;;;5085587;28;20037;-80
2023/07/06 07:03:28;;;;;;;8.93;5.53;;;19.20;99.90;;;;;;5064750;28;20044;-80
2023/07/06 07:06:13;;;;;;;8.20;5.32;;;18.90;99.90;;;;;;5068261;28;20123;-82
2023/07/06 07:08:43;;;;;;;14.40;5.65;;;18.90;99.90;;;;;;5068221;28;20056;-80
2023/07/06 07:11:08;;;;;;;11.00;5.72;;;18.90;99.90;;;;;;5069113;28;20051;-83
2023/07/06 07:13:35;;;;;;;11.75;6.38;;;19.10;99.90;;;;;;5076985;28;20036;-80
2023/07/06 07:16:02;;;;;;;10.15;5.82;;;19.20;99.90;;;;;;5058161;28;20059;-81
2023/07/06 07:18:28;;;;;;;10.20;5.25;;;19.30;99.90;;;;;;5069039;28;20164;-81
2023/07/06 07:20:56;;;;;;;10.40;5.85;;;19.20;99.90;;;;;;5067526;28;20139;-82
2023/07/06 07:23:26;;;;;;;10.63;6.00;;;18.90;99.90;;;;;;5068192;28;20052;-81
2023/07/06 07:25:52;;;;;;;14.25;6.15;;;18.90;99.90;;;;;;5051933;28;20475;-81
2023/07/06 07:28:18;;;;;;;15.38;6.05;;;18.90;99.90;;;;;;5069425;28;20582;-81
2023/07/06 07:30:55;;;;;;;10.68;6.72;;;19.10;99.90;;;;;;5053072;28;20048;-80
2023/07/06 07:33:21;;;;;;;10.85;5.93;;;19.40;99.90;;;;;;5068698;28;20136;-80
2023/07/06 07:35:47;;;;;;;11.57;7.10;;;19.60;99.90;;;;;;5068263;28;20131;-80
2023/07/06 07:38:16;;;;;;;11.38;6.45;;;19.70;99.90;;;;;;5066912;28;20235;-80
2023/07/06 07:40:57;;;;;;;11.27;6.30;;;19.80;99.90;;;;;;5067895;28;20048;-80
2023/07/06 07:43:33;;;;;;;10.95;6.47;;;19.80;99.90;;;;;;5051420;28;20040;-80
2023/07/06 07:46:06;;;;;;;7.95;5.95;;;19.80;99.90;;;;;;5081730;28;20053;-80
2023/07/06 07:48:37;;;;;;;9.93;5.97;;;19.90;99.90;;;;;;5066967;28;20066;-79
2023/07/06 07:51:05;;;;;;;12.55;6.63;;;19.80;99.90;;;;;;5067388;28;20063;-80
2023/07/06 07:53:33;;;;;;;11.35;7.30;;;19.70;99.90;;;;;;5064694;28;20500;-80
2023/07/06 07:55:59;;;;;;;17.40;7.00;;;19.30;99.90;;;;;;5065546;28;20055;-80
2023/07/06 07:58:28;;;;;;;11.82;6.93;;;19.40;99.90;;;;;;5066411;28;20044;-79
2023/07/06 08:00:55;;;;;;;11.95;6.88;;;19.50;99.90;;;;;;5067357;28;20087;-80
2023/07/06 08:03:25;;;;;;;7.50;6.45;;;19.70;99.90;;;;;;5066529;28;20067;-80
2023/07/06 08:05:55;;;;;;;13.32;6.40;;;19.90;99.90;;;;;;5068945;28;20060;-79
2023/07/06 08:08:25;;;;;;;11.13;6.18;;;19.80;99.90;;;;;;5068715;28;20060;-81
2023/07/06 08:10:55;;;;;;;12.38;6.25;;;20.20;99.90;;;;;;5067154;28;20045;-79
2023/07/06 08:13:21;;;;;;;9.85;6.43;;;20.00;99.90;;;;;;5084265;28;20052;-80
2023/07/06 08:15:47;;;;;;;8.38;5.80;;;20.00;99.90;;;;;;5051264;28;20403;-79
2023/07/06 08:18:13;;;;;;;8.90;6.07;;;20.00;99.90;;;;;;5084050;28;20090;-85
2023/07/06 08:20:40;;;;;;;8.40;6.15;;;19.90;99.90;;;;;;5067353;28;20052;-86
2023/07/06 08:23:12;;;;;;;7.40;5.78;;;20.00;99.90;;;;;;5052076;28;20070;-87
2023/07/06 08:25:40;;;;;;;;;;;20.10;99.90;;;;;;5067426;28;20044;-81
2023/07/06 08:28:07;;;;;;;7.30;4.75;;;20.10;99.90;;;;;;5048818;28;19921;-81
2023/07/06 08:30:34;;;;;;;8.40;4.18;;;20.20;99.90;;;;;;5066990;28;20040;-82
2023/07/06 08:33:00;;;;;;;6.85;4.00;;;20.40;99.90;;;;;;5050583;28;20055;-81
2023/07/06 08:35:30;;;;;;;6.43;3.80;;;20.30;99.90;;;;;;5067072;28;20040;-81
2023/07/06 08:37:57;;;;;;;6.78;3.85;;;20.20;99.90;;;;;;5066832;28;20056;-81
2023/07/06 08:40:30;;;;;;;7.32;3.60;;;20.10;99.90;;;;;;5066941;28;20155;-81
2023/07/06 08:42:57;;;;;;;7.20;3.70;;;20.20;99.90;;;;;;5065785;28;20064;-82
2023/07/06 08:45:41;;;;;;;6.88;3.25;;;20.70;99.90;;;;;;5066448;28;20056;-82
2023/07/06 08:48:13;;;;;;;5.35;3.15;;;20.60;99.90;;;;;;5066875;28;20049;-83
2023/07/06 08:50:43;;;;;;;7.25;2.90;;;20.50;99.90;;;;;;5065847;28;20064;-83
2023/07/06 08:53:14;;;;;;;4.85;2.33;;;20.50;99.90;;;;;;5050742;28;20044;-83
2023/07/06 08:55:42;;;;;;;5.18;3.28;;;20.50;99.90;;;;;;5066201;28;20052;-84
2023/07/06 08:58:21;;;;;;;6.05;3.25;;;20.50;99.90;;;;;;5043809;28;20773;-83
2023/07/06 09:00:47;;;;;;;9.13;3.65;;;20.70;99.90;;;;;;5040447;28;20576;-82
2023/07/06 09:03:13;;;;;;;6.20;3.00;;;20.40;99.90;;;;;;5066251;28;20090;-83
2023/07/06 09:05:47;;;;;;;6.00;2.30;;;20.60;99.90;;;;;;5065847;28;20092;-83
2023/07/06 09:08:17;;;;;;;3.83;2.00;;;20.70;99.90;;;;;;5068412;28;20076;-83
2023/07/06 09:10:42;;;;;;;5.57;2.80;;;20.80;99.90;;;;;;5065867;28;20135;-83
2023/07/06 09:13:23;;;;;;;3.70;2.30;;;21.30;99.90;;;;;;5065377;28;20116;-83
2023/07/06 09:16:00;;;;;;;3.97;2.30;;;21.30;99.90;;;;;;5049159;28;20388;-82
2023/07/06 09:18:28;;;;;;;6.88;2.55;;;21.50;99.90;;;;;;5049490;28;20127;-82
2023/07/06 09:20:56;;;;;;;3.53;1.73;;;21.60;99.90;;;;;;5066284;28;20496;-82
2023/07/06 09:23:22;;;;;;;3.45;1.83;;;21.50;99.90;;;;;;5066226;28;20053;-83
2023/07/06 09:25:48;;;;;;;2.85;2.03;;;21.30;99.90;;;;;;5066757;28;20052;-82
2023/07/06 09:28:18;;;;;;;3.72;1.80;;;21.20;99.90;;;;;;5065465;28;20044;-82
2023/07/06 09:30:45;;;;;;;3.03;1.65;;;21.20;99.90;;;;;;5065854;28;20041;-81
2023/07/06 09:33:26;;;;;;;13.98;3.03;;;21.10;99.90;;;;;;5065444;28;20056;-82
2023/07/06 09:35:56;;;;;;;5.65;1.80;;;21.20;98.30;;;;;;5065212;28;20091;-82
2023/07/06 09:38:26;;;;;;;2.33;1.83;;;21.20;99.60;;;;;;5049196;28;20079;-83
2023/07/06 09:40:52;;;;;;;5.28;1.90;;;21.30;99.70;;;;;;5049433;28;20055;-82
2023/07/06 09:43:29;;;;;;;5.07;2.45;;;21.10;99.90;;;;;;5065729;28;20084;-82
2023/07/06 09:45:57;;;;;;;4.80;2.20;;;21.20;99.10;;;;;;5066232;28;20447;-83
2023/07/06 09:48:32;;;;;;;5.30;1.90;;;21.20;99.90;;;;;;5065326;28;20044;-82
2023/07/06 09:51:13;;;;;;;2.95;1.77;;;21.20;98.70;;;;;;5065846;28;20072;-82
2023/07/06 09:53:49;;;;;;;4.43;1.77;;;21.20;97.80;;;;;;5065604;28;20051;-82
2023/07/06 09:56:15;;;;;;;3.15;1.80;;;21.20;97.90;;;;;;5049614;28;20052;-82
2023/07/06 09:58:42;;;;;;;2.33;2.08;;;20.90;99.70;;;;;;5065939;28;20052;-82
2023/07/06 10:01:33;;;;;;;2.75;1.75;;;21.00;98.90;;;;;;5065753;28;20064;-82
2023/07/06 10:04:24;;;;;;;4.00;2.03;;;20.90;97.40;;;;;;5065031;28;20047;-81
2023/07/06 10:07:15;;;;;;;3.05;2.33;;;20.90;97.60;;;;;;5063191;28;20052;-82
2023/07/06 10:09:49;;;;;;;4.25;2.72;;;20.90;97.60;;;;;;5064548;28;20049;-82
2023/07/06 10:12:31;;;;;;;5.90;2.60;;;20.90;99.50;;;;;;5058035;28;20059;-83
2023/07/06 10:15:00;;;;;;;6.38;2.75;;;20.80;99.10;;;;;;5047717;28;20111;-82
2023/07/06 10:17:41;;;;;;;4.25;2.67;;;20.60;99.90;;;;;;5067159;28;20402;-82
2023/07/06 10:20:26;;;;;;;4.35;2.80;;;20.40;99.90;;;;;;5068848;28;20057;-81
2023/07/06 10:23:18;;;;;;;4.50;2.72;;;20.40;99.90;;;;;;5049544;28;20049;-85
2023/07/06 10:26:26;;;;;;;7.45;2.90;;;20.30;99.90;;;;;;5080022;28;20106;-82
2023/07/06 10:29:05;;;;;;;5.38;2.78;;;20.40;99.90;;;;;;5046672;28;20040;-81
2023/07/06 10:31:43;;;;;;;4.85;2.30;;;21.20;99.90;;;;;;5052617;28;20037;-81
2023/07/06 10:34:27;;;;;;;3.97;2.53;;;21.10;99.90;;;;;;5049519;28;20045;-82
2023/07/06 10:36:52;;;;;;;4.82;2.30;;;21.30;99.90;;;;;;5058748;28;20107;-82
2023/07/06 10:39:24;;;;;;;7.10;2.58;;;21.20;99.90;;;;;;5068882;28;20391;-82
2023/07/06 10:42:00;;;;;;;3.70;2.10;;;21.10;98.80;;;;;;5068504;28;20397;-82
2023/07/06 10:44:43;;;;;;;4.70;2.45;;;21.00;99.60;;;;;;5069097;28;20055;-81
2023/07/06 10:47:29;;;;;;;4.22;2.35;;;21.00;99.10;;;;;;5069468;28;20393;-82
2023/07/06 10:50:19;;;;;;;4.25;2.20;;;21.10;98.70;;;;;;5053819;28;20059;-82
2023/07/06 10:53:02;;;;;;;4.43;2.13;;;20.90;98.10;;;;;;5065868;28;20136;-82
2023/07/06 10:55:34;;;;;;;4.15;2.03;;;20.70;99.90;;;;;;5050436;28;20044;-82
2023/07/06 10:58:18;;;;;;;;;;;20.60;99.90;;;;;;5049670;28;20151;-82
2023/07/06 11:00:46;;;;;;;3.63;1.85;;;20.50;99.90;;;;;;5057596;28;19920;-81
2023/07/06 11:03:17;;;;;;;3.97;2.05;;;20.60;99.90;;;;;;5069249;28;20041;-81
2023/07/06 11:06:05;;;;;;;2.37;1.77;;;20.80;99.90;;;;;;5068665;28;20044;-81
2023/07/06 11:09:03;;;;;;;4.40;1.90;;;20.90;96.60;;;;;;5068405;28;20048;-82
2023/07/06 11:11:33;;;;;;;3.67;2.30;;;21.20;97.90;;;;;;5054502;28;20042;-81
2023/07/06 11:14:33;;;;;;;6.00;2.17;;;21.50;96.60;;;;;;5070112;28;20074;-84
2023/07/06 11:17:18;;;;;;;2.90;1.80;;;21.90;94.30;;;;;;5062466;28;20092;-81
2023/07/06 11:20:23;;;;;;;3.15;1.63;;;21.80;94.20;;;;;;5051367;28;20057;-82
2023/07/06 11:22:55;;;;;;;4.30;2.10;;;21.80;94.80;;;;;;5027508;28;20095;-81
2023/07/06 11:25:21;;;;;;;5.00;2.25;;;22.00;95.40;;;;;;5041569;28;20052;-81
2023/07/06 11:27:53;;;;;;;3.47;1.92;;;21.80;95.50;;;;;;5067290;28;20159;-80
2023/07/06 11:30:26;;;;;;;4.68;1.70;;;21.80;95.40;;;;;;5069163;28;20523;-80
2023/07/06 11:33:00;;;;;;;7.30;2.00;;;21.70;95.30;;;;;;5068956;28;20150;-80
2023/07/06 11:36:00;;;;;;;4.07;1.90;;;21.80;95.50;;;;;;5068397;28;20052;-81
2023/07/06 11:38:51;;;;;;;3.70;1.73;;;21.80;94.90;;;;;;5068448;28;20182;-81
2023/07/06 11:41:43;;;;;;;3.83;1.98;;;21.60;94.30;;;;;;5068026;28;20044;-80
2023/07/06 11:44:26;;;;;;;6.00;1.92;;;21.50;96.50;;;;;;5066360;28;20127;-81
2023/07/06 11:47:19;;;;;;;4.28;1.63;;;21.60;96.30;;;;;;5068376;28;20041;-80
2023/07/06 11:50:08;;;;;;;4.90;1.20;;;21.40;96.50;;;;;;5065358;28;20049;-80
2023/07/06 11:52:37;;;;;;;2.67;1.20;;;21.40;95.90;;;;;;5055075;28;20048;-79
2023/07/06 11:55:49;;;;;;;2.95;1.52;;;21.60;94.70;;;;;;5042919;28;20072;-78
2023/07/06 11:59:01;;;;;;;2.80;1.33;;;21.60;94.30;;;;;;5052124;28;20052;-78
2023/07/06 12:01:20;;;;;;;3.67;1.30;;;21.50;93.90;;;;;;5061679;28;20044;-78
2023/07/06 12:03:56;;;;;;;3.08;1.70;;;21.80;92.90;;;;;;5068037;28;20071;-79
2023/07/06 12:06:22;;;;;;;3.60;1.60;;;22.00;92.90;;;;;;5084182;28;20071;-78
2023/07/06 12:08:47;;;;;;;3.10;1.48;;;22.30;92.30;;;;;;5068286;28;20037;-79
2023/07/06 12:11:19;;;;;;;3.22;1.35;;;22.50;91.20;;;;;;5051071;28;20098;-79
2023/07/06 12:13:48;;;;;;;3.67;1.63;;;22.50;87.80;;;;;;5068041;28;20041;-78
2023/07/06 12:16:18;;;;;;;2.92;1.52;;;22.40;88.70;;;;;;5066842;28;20545;-79
2023/07/06 12:18:45;;;;;;;2.08;1.30;;;22.40;87.30;;;;;;5042060;28;20041;-80
2023/07/06 12:21:28;;;;;;;2.90;1.50;;;22.40;86.30;;;;;;5048180;28;20053;-80
2023/07/06 12:24:02;;;;;;;2.83;1.40;;;22.40;82.60;;;;;;5047968;28;20047;-80
2023/07/06 12:26:29;;;;;;;2.78;1.40;;;22.60;87.50;;;;;;5047506;28;20076;-80
2023/07/06 12:28:59;;;;;;;3.17;1.58;;;22.70;89.40;;;;;;5031243;28;20041;-80
2023/07/06 12:31:26;;;;;;;3.42;1.20;;;22.80;84.40;;;;;;5032674;28;20133;-80
2023/07/06 12:33:54;;;;;;;6.15;1.63;;;22.50;83.20;;;;;;5060929;28;20080;-80
2023/07/06 12:36:23;;;;;;;2.13;1.30;;;22.10;83.60;;;;;;5056988;28;20116;-80
2023/07/06 12:38:55;;;;;;;4.57;1.58;;;22.00;84.60;;;;;;5030947;28;20037;-80
2023/07/06 12:41:21;;;;;;;2.15;1.42;;;21.80;85.30;;;;;;5045851;28;20045;-81
2023/07/06 12:43:49;;;;;;;2.13;1.65;;;21.70;86.40;;;;;;5046766;28;20044;-81
2023/07/06 12:46:21;;;;;;;4.20;1.60;;;21.50;86.40;;;;;;5036145;28;20135;-82
2023/07/06 12:48:52;;;;;;;3.75;1.50;;;21.50;88.50;;;;;;5031316;28;20072;-83
2023/07/06 12:51:23;;;;;;;5.13;2.20;;;21.40;90.60;;;;;;5064626;28;20091;-81
2023/07/06 12:53:53;;;;;;;3.60;2.00;;;21.40;91.10;;;;;;5067374;28;20048;-81
2023/07/06 12:56:21;;;;;;;2.70;1.70;;;21.40;91.90;;;;;;5066888;28;20044;-81
2023/07/06 12:58:58;;;;;;;4.65;2.20;;;21.40;93.00;;;;;;5066200;28;20067;-82
2023/07/06 13:01:39;;;;;;;3.58;1.90;;;21.40;92.70;;;;;;5049394;28;20075;-82
2023/07/06 13:04:10;;;;;;;4.65;2.10;;;21.50;93.30;;;;;;5058245;28;20045;-82